createdAt,value
2022-11-05T00:05:21.250Z,100163.66
2022-11-05T00:15:46.121Z,100178.06
2022-11-05T00:25:57.588Z,100188.94
2022-11-05T00:36:03.786Z,100197.22
2022-11-05T00:46:07.510Z,100200.59
2022-11-05T00:56:12.526Z,100222.34
2022-11-05T01:06:18.206Z,100228.22
2022-11-05T01:16:23.193Z,100230.66
2022-11-05T01:26:28.086Z,100243.25
2022-11-05T01:36:33.135Z,100252.28
2022-11-05T01:46:43.991Z,100253.91
2022-11-05T01:56:54.378Z,100267.06
2022-11-05T02:06:58.964Z,100273.97
2022-11-05T02:17:09.908Z,100287.66
2022-11-05T02:27:22.086Z,100284.84
2022-11-05T02:37:39.087Z,100284.22
2022-11-05T02:47:46.900Z,100287.78
2022-11-05T02:57:51.891Z,100298.19
2022-11-05T03:08:02.551Z,100318.31
2022-11-05T03:18:14.618Z,100319.06
2022-11-05T03:28:23.625Z,100333.22
2022-11-05T03:38:34.143Z,100348.88
2022-11-05T03:48:42.979Z,100350.03
2022-11-05T03:58:53.443Z,100364.97
2022-11-05T04:09:19.063Z,100366.97
2022-11-05T04:19:38.040Z,100378.47
2022-11-05T04:29:59.537Z,100383.84
2022-11-05T04:40:04.863Z,100384.66
2022-11-05T04:50:10.475Z,100401.31
2022-11-05T05:00:16.187Z,100412.72
2022-11-05T05:10:20.289Z,100417.56
2022-11-05T05:20:44.047Z,100436.16
2022-11-05T05:30:50.984Z,100434.88
2022-11-05T05:40:59.440Z,100459.50
2022-11-05T05:51:04.129Z,100465.66
2022-11-05T06:01:18.645Z,100480.38
2022-11-05T06:11:23.602Z,100481.09
2022-11-05T06:21:28.680Z,100491.44
2022-11-05T06:31:35.013Z,100504.50
2022-11-05T06:42:03.821Z,100517.03
2022-11-05T06:52:04.529Z,100533.38
2022-11-05T07:02:13.869Z,100544.63
2022-11-05T07:12:17.671Z,100565.28
2022-11-05T07:22:22.850Z,100582.19
2022-11-05T07:32:26.640Z,100600.56
2022-11-05T07:42:31.804Z,100612.31
2022-11-05T07:52:35.545Z,100625.94
2022-11-05T08:02:41.299Z,100611.44
2022-11-05T08:12:45.136Z,100621.78
2022-11-05T08:22:50.201Z,100625.81
2022-11-05T08:32:58.795Z,100636.38
2022-11-05T08:43:06.651Z,100641.03
2022-11-05T08:53:11.614Z,100640.38
2022-11-05T09:03:17.661Z,100646.63
2022-11-05T09:13:21.835Z,100642.88
2022-11-05T09:23:27.008Z,100637.16
2022-11-05T09:33:30.972Z,100650.72
2022-11-05T09:43:41.912Z,100655.91
2022-11-05T09:53:47.301Z,100661.53
2022-11-05T10:03:55.697Z,100674.59
2022-11-05T10:14:04.797Z,100692.34
2022-11-05T10:24:16.005Z,100696.28
2022-11-05T10:34:21.024Z,100708.59
2022-11-05T10:44:37.686Z,100703.22
2022-11-05T10:54:42.185Z,100699.06
2022-11-05T11:04:52.940Z,100703.03
2022-11-05T11:15:02.945Z,100701.38
2022-11-05T11:25:25.744Z,100682.56
2022-11-05T11:35:29.732Z,100677.09
2022-11-05T11:45:39.492Z,100666.59
2022-11-05T11:55:58.135Z,100670.56
2022-11-05T12:06:21.984Z,100645.41
2022-11-05T12:16:55.221Z,100636.91
2022-11-05T12:27:17.252Z,100638.31
2022-11-05T12:37:30.654Z,100618.28
2022-11-05T12:48:01.139Z,100611.72
2022-11-05T12:58:12.193Z,100621.91
2022-11-05T13:08:22.940Z,100635.47
2022-11-05T13:18:32.249Z,100626.38
2022-11-05T13:28:46.775Z,100624.41
2022-11-05T13:39:03.588Z,100621.34
2022-11-05T13:49:45.158Z,100636.22
2022-11-05T14:00:06.172Z,100655.69
2022-11-05T14:10:27.060Z,100668.84
2022-11-05T14:20:48.071Z,100675.75
2022-11-05T14:30:53.243Z,100666.59
2022-11-05T14:41:01.665Z,100667.34
2022-11-05T14:51:26.656Z,100677.78
2022-11-05T15:01:55.026Z,100682.66
2022-11-05T15:12:12.112Z,100698.41
2022-11-05T15:22:29.100Z,100702.88
2022-11-05T15:32:38.572Z,100690.66
2022-11-05T15:42:42.309Z,100689.78
2022-11-05T15:52:53.805Z,100694.34
2022-11-05T16:03:01.680Z,100698.03
2022-11-05T16:13:33.292Z,100698.41
2022-11-05T16:23:46.917Z,100704.97
2022-11-05T16:33:52.477Z,100701.25
2022-11-05T16:43:58.391Z,100695.38
2022-11-05T16:54:03.385Z,100723.31
2022-11-05T17:04:07.004Z,100755.19
2022-11-05T17:14:14.187Z,100762.78
2022-11-05T17:24:17.822Z,100785.25
2022-11-05T17:34:25.914Z,100780.03
2022-11-05T17:44:29.550Z,100792.47
2022-11-05T17:54:34.566Z,100798.59
2022-11-05T18:04:38.468Z,100793.91
2022-11-05T18:14:43.577Z,100803.44
2022-11-05T18:24:48.225Z,100813.59
2022-11-05T18:34:53.270Z,100818.13
2022-11-05T18:44:56.951Z,100822.28
2022-11-05T18:55:04.465Z,100826.88
2022-11-05T19:05:28.606Z,100819.25
2022-11-05T19:15:34.346Z,100829.50
2022-11-05T19:25:38.928Z,100828.09
2022-11-05T19:35:44.078Z,100827.13
2022-11-05T19:45:47.896Z,100808.97
2022-11-05T19:55:53.121Z,100807.94
2022-11-05T20:06:02.451Z,100813.09
2022-11-05T20:16:08.668Z,100811.53
2022-11-05T20:26:13.838Z,100824.38
2022-11-05T20:36:24.301Z,100829.44
2022-11-05T20:46:28.397Z,100832.06
2022-11-05T20:56:35.576Z,100828.66
2022-11-05T21:06:39.314Z,100828.41
2022-11-05T21:16:44.655Z,100822.84
2022-11-05T21:26:49.863Z,100832.94
2022-11-05T21:36:54.985Z,100833.13
2022-11-05T21:46:59.609Z,100827.81
2022-11-05T21:57:22.463Z,100836.09
2022-11-05T22:07:29.693Z,100835.94
2022-11-05T22:17:34.640Z,100836.47
2022-11-05T22:27:38.334Z,100852.16
2022-11-05T22:37:43.343Z,100850.25
2022-11-05T22:47:47.347Z,100847.69
2022-11-05T22:57:52.393Z,100852.91
2022-11-05T23:08:14.127Z,100856.59
2022-11-05T23:18:37.129Z,100851.09
2022-11-05T23:28:40.771Z,100834.97
2022-11-05T23:38:45.804Z,100828.28
2022-11-05T23:48:49.535Z,100817.38
2022-11-05T23:58:54.555Z,100821.03
